createdAt,value
2023-03-11T00:00:47.261Z,0.43
2023-03-11T00:03:17.315Z,0.50
2023-03-11T00:05:45.754Z,0.73
2023-03-11T00:08:17.995Z,0.50
2023-03-11T00:10:47.883Z,0.68
2023-03-11T00:13:16.262Z,0.70
2023-03-11T00:15:48.659Z,0.35
2023-03-11T00:18:16.457Z,0.68
2023-03-11T00:20:46.299Z,0.47
2023-03-11T00:23:14.958Z,0.40
2023-03-11T00:25:45.503Z,0.50
2023-03-11T00:28:14.204Z,0.68
2023-03-11T00:30:42.769Z,0.40
2023-03-11T00:33:13.237Z,0.30
2023-03-11T00:38:13.758Z,0.40
2023-03-11T00:40:41.084Z,0.40
2023-03-11T00:43:08.121Z,0.30
2023-03-11T00:45:36.561Z,0.28
2023-03-11T00:48:04.639Z,0.40
2023-03-11T00:50:35.133Z,0.28
2023-03-11T00:53:04.185Z,0.32
2023-03-11T00:55:33.493Z,0.40
2023-03-11T01:00:52.530Z,0.38
2023-03-11T01:03:19.482Z,0.38
2023-03-11T01:05:46.405Z,0.85
2023-03-11T01:08:13.324Z,0.20
2023-03-11T01:10:40.237Z,0.30
2023-03-11T01:13:07.185Z,0.30
2023-03-11T01:15:37.674Z,0.40
2023-03-11T01:18:06.214Z,0.30
2023-03-11T01:20:36.206Z,0.40
2023-03-11T01:23:03.448Z,0.43
2023-03-11T01:25:30.470Z,0.40
2023-03-11T01:27:59.252Z,0.65
2023-03-11T01:30:28.465Z,0.40
2023-03-11T01:32:57.757Z,0.40
2023-03-11T01:35:27.282Z,0.30
2023-03-11T01:37:54.806Z,0.40
2023-03-11T01:40:28.653Z,0.40
2023-03-11T01:42:57.797Z,0.30
2023-03-11T01:45:42.648Z,0.60
2023-03-11T01:48:11.726Z,0.30
2023-03-11T01:50:46.381Z,0.32
2023-03-11T01:53:15.890Z,0.30
2023-03-11T01:55:45.128Z,0.38
2023-03-11T01:58:24.331Z,0.40
2023-03-11T02:00:52.381Z,0.47
2023-03-11T02:03:27.406Z,0.90
2023-03-11T02:05:57.142Z,0.85
2023-03-11T02:08:24.302Z,0.50
2023-03-11T02:10:53.111Z,0.50
2023-03-11T02:13:20.727Z,0.50
2023-03-11T02:15:47.763Z,0.40
2023-03-11T02:18:20.094Z,0.38
2023-03-11T02:21:11.477Z,0.50
2023-03-11T02:24:13.422Z,0.40
2023-03-11T02:26:59.966Z,0.40
2023-03-11T02:29:29.780Z,0.40
2023-03-11T02:31:59.618Z,0.40
2023-03-11T02:34:30.692Z,0.55
2023-03-11T02:36:59.136Z,0.40
2023-03-11T02:39:33.921Z,0.60
2023-03-11T02:42:07.427Z,0.50
2023-03-11T02:44:35.061Z,0.50
2023-03-11T02:47:02.594Z,0.32
2023-03-11T02:49:31.159Z,0.35
2023-03-11T02:51:58.142Z,0.32
2023-03-11T02:54:25.160Z,0.70
2023-03-11T02:56:52.182Z,0.60
2023-03-11T02:59:19.153Z,0.60
2023-03-11T03:01:46.271Z,0.50
2023-03-11T03:04:13.419Z,0.60
2023-03-11T03:06:40.453Z,0.68
2023-03-11T03:09:07.821Z,0.73
2023-03-11T03:11:34.769Z,0.55
2023-03-11T03:14:01.930Z,0.60
2023-03-11T03:16:28.930Z,0.43
2023-03-11T03:18:55.941Z,0.50
2023-03-11T03:21:22.869Z,0.50
2023-03-11T03:23:49.842Z,0.50
2023-03-11T03:26:16.929Z,0.40
2023-03-11T03:28:47.576Z,0.50
2023-03-11T03:31:15.072Z,0.82
2023-03-11T03:36:15.214Z,0.77
2023-03-11T03:38:45.926Z,0.70
2023-03-11T03:41:16.329Z,0.77
2023-03-11T03:43:44.487Z,0.90
2023-03-11T03:46:12.198Z,0.60
2023-03-11T03:48:43.169Z,0.52
2023-03-11T03:51:14.203Z,0.40
2023-03-11T03:53:48.596Z,0.50
2023-03-11T03:56:18.371Z,0.50
2023-03-11T03:58:45.397Z,0.60
2023-03-11T04:01:13.065Z,0.40
2023-03-11T04:03:41.320Z,0.60
2023-03-11T04:06:29.851Z,0.40
2023-03-11T04:09:03.783Z,0.73
2023-03-11T04:11:33.741Z,0.50
2023-03-11T04:14:02.508Z,0.40
2023-03-11T04:16:30.632Z,0.60
2023-03-11T04:19:05.585Z,0.60
2023-03-11T04:21:33.808Z,0.50
2023-03-11T04:24:01.585Z,0.40
2023-03-11T04:26:33.097Z,0.50
2023-03-11T04:29:00.673Z,0.30
2023-03-11T04:31:30.863Z,0.50
2023-03-11T04:34:00.326Z,0.45
2023-03-11T04:36:27.808Z,0.50
2023-03-11T04:38:57.775Z,0.35
2023-03-11T04:41:26.739Z,0.35
2023-03-11T04:43:54.310Z,0.28
2023-03-11T04:46:21.317Z,0.43
2023-03-11T04:48:48.944Z,0.50
2023-03-11T04:51:15.963Z,0.32
2023-03-11T04:53:43.107Z,0.50
2023-03-11T04:56:10.829Z,0.60
2023-03-11T04:58:39.043Z,0.60
2023-03-11T05:01:06.427Z,0.63
2023-03-11T05:03:33.530Z,0.60
2023-03-11T05:06:00.610Z,0.50
2023-03-11T05:08:27.630Z,0.40
2023-03-11T05:10:54.719Z,0.43
2023-03-11T05:13:22.908Z,0.63
2023-03-11T05:15:51.753Z,0.63
2023-03-11T05:18:18.737Z,0.55
2023-03-11T05:20:51.774Z,0.52
2023-03-11T05:23:21.975Z,0.65
2023-03-11T05:25:49.017Z,0.40
2023-03-11T05:28:16.200Z,0.30
2023-03-11T05:30:50.446Z,0.60
2023-03-11T05:33:18.280Z,0.35
2023-03-11T05:35:46.029Z,0.47
2023-03-11T05:38:13.644Z,0.95
2023-03-11T05:40:43.191Z,0.50
2023-03-11T05:43:10.217Z,0.60
2023-03-11T05:45:40.686Z,0.43
2023-03-11T05:48:07.764Z,0.40
2023-03-11T05:50:37.882Z,0.60
2023-03-11T05:53:05.480Z,0.77
2023-03-11T05:55:32.652Z,0.40
2023-03-11T05:58:00.440Z,0.65
2023-03-11T06:00:29.412Z,0.82
2023-03-11T06:05:25.519Z,0.65
2023-03-11T06:07:54.428Z,0.43
2023-03-11T06:10:23.081Z,0.43
2023-03-11T06:12:50.117Z,0.57
2023-03-11T06:15:22.723Z,0.60
2023-03-11T06:17:49.974Z,0.50
2023-03-11T06:20:17.980Z,0.60
2023-03-11T06:22:47.773Z,0.55
2023-03-11T06:25:14.894Z,0.50
2023-03-11T06:27:44.641Z,0.57
2023-03-11T06:30:12.526Z,0.40
2023-03-11T06:32:49.210Z,0.60
2023-03-11T06:35:16.261Z,0.90
2023-03-11T06:37:43.223Z,1.00
2023-03-11T06:40:12.249Z,1.00
2023-03-11T06:42:39.866Z,0.65
2023-03-11T06:45:10.013Z,0.80
2023-03-11T06:47:38.677Z,0.93
2023-03-11T06:50:08.560Z,1.00
2023-03-11T06:52:35.868Z,0.60
2023-03-11T06:55:03.923Z,0.75
2023-03-11T06:57:33.586Z,0.70
2023-03-11T07:00:07.276Z,0.57
2023-03-11T07:02:35.771Z,0.70
2023-03-11T07:05:03.346Z,0.63
2023-03-11T07:07:30.877Z,0.80
2023-03-11T07:09:57.969Z,1.00
2023-03-11T07:12:25.389Z,1.40
2023-03-11T07:14:59.886Z,0.80
2023-03-11T07:17:28.426Z,0.77
2023-03-11T07:19:55.446Z,1.05
2023-03-11T07:22:22.375Z,1.65
2023-03-11T07:24:49.720Z,0.75
2023-03-11T07:27:17.535Z,0.93
2023-03-11T07:29:44.698Z,0.90
2023-03-11T07:32:11.599Z,1.23
2023-03-11T07:34:38.536Z,0.90
2023-03-11T07:37:05.557Z,0.98
2023-03-11T07:39:32.670Z,0.85
2023-03-11T07:41:59.586Z,1.00
2023-03-11T07:44:34.512Z,1.00
2023-03-11T07:47:05.792Z,1.00
2023-03-11T07:49:33.671Z,0.65
2023-03-11T07:52:00.713Z,0.90
2023-03-11T07:54:27.776Z,0.65
2023-03-11T07:56:54.742Z,0.60
2023-03-11T07:59:21.763Z,0.93
2023-03-11T08:01:48.752Z,1.00
2023-03-11T08:04:16.982Z,0.80
2023-03-11T08:06:47.152Z,1.45
2023-03-11T08:09:14.349Z,0.70
2023-03-11T08:11:41.737Z,0.90
2023-03-11T08:14:08.907Z,0.85
2023-03-11T08:16:35.895Z,1.10
2023-03-11T08:19:03.519Z,0.70
2023-03-11T08:21:32.134Z,0.70
2023-03-11T08:24:02.268Z,1.20
2023-03-11T08:26:30.804Z,1.08
2023-03-11T08:28:59.089Z,0.75
2023-03-11T08:31:30.615Z,0.82
2023-03-11T08:34:09.745Z,0.95
2023-03-11T08:36:36.951Z,0.95
2023-03-11T08:39:04.179Z,0.88
2023-03-11T08:41:31.379Z,0.77
2023-03-11T08:43:58.476Z,0.70
2023-03-11T08:46:31.394Z,0.80
2023-03-11T08:49:01.210Z,0.85
2023-03-11T08:51:30.420Z,0.88
2023-03-11T08:53:57.973Z,0.98
2023-03-11T08:56:25.668Z,1.10
2023-03-11T08:58:52.785Z,1.00
2023-03-11T09:01:20.348Z,0.80
2023-03-11T09:03:47.544Z,0.70
2023-03-11T09:06:16.821Z,1.10
2023-03-11T09:08:45.026Z,1.15
2023-03-11T09:11:13.492Z,1.02
2023-03-11T09:13:41.621Z,0.90
2023-03-11T09:16:15.527Z,0.88
2023-03-11T09:18:43.030Z,1.23
2023-03-11T09:21:10.643Z,1.10
2023-03-11T09:23:37.890Z,1.05
2023-03-11T09:26:05.088Z,1.15
2023-03-11T09:28:32.317Z,1.10
2023-03-11T09:30:59.466Z,0.88
2023-03-11T09:33:26.710Z,1.40
2023-03-11T09:35:53.742Z,1.20
2023-03-11T09:38:20.733Z,1.00
2023-03-11T09:41:55.367Z,0.70
2023-03-11T09:44:54.220Z,1.10
2023-03-11T09:47:41.622Z,0.80
2023-03-11T09:50:35.156Z,0.80
2023-03-11T09:53:13.711Z,0.93
2023-03-11T09:55:53.626Z,0.95
2023-03-11T09:58:42.905Z,1.23
2023-03-11T10:01:42.880Z,0.70
2023-03-11T10:04:29.158Z,1.10
2023-03-11T10:06:57.202Z,1.13
2023-03-11T12:22:18.976Z,0.38
2023-03-11T12:25:22.134Z,0.95
2023-03-11T12:28:32.809Z,1.10
2023-03-11T12:31:09.278Z,0.90
2023-03-11T12:33:51.169Z,0.90
2023-03-11T12:36:42.164Z,0.70
2023-03-11T12:39:25.153Z,0.68
2023-03-11T12:42:22.697Z,0.82
2023-03-11T12:44:50.712Z,0.77
2023-03-11T12:47:25.365Z,0.90
2023-03-11T12:49:55.646Z,0.80
2023-03-11T12:52:26.543Z,0.80
2023-03-11T12:57:36.981Z,0.80
2023-03-11T13:00:28.743Z,0.55
2023-03-11T13:03:35.255Z,0.93
2023-03-11T13:06:42.773Z,0.43
2023-03-11T13:09:17.581Z,0.70
2023-03-11T13:11:48.059Z,0.70
2023-03-11T13:14:14.974Z,0.50
2023-03-11T13:16:43.759Z,0.80
2023-03-11T13:19:35.692Z,0.60
2023-03-11T13:22:06.301Z,0.50
2023-03-11T13:24:33.081Z,0.55
2023-03-11T13:27:00.459Z,0.98
2023-03-11T13:29:47.828Z,0.63
2023-03-11T13:32:48.508Z,0.80
2023-03-11T13:35:33.429Z,0.50
2023-03-11T13:38:45.322Z,0.55
2023-03-11T13:41:19.144Z,0.70
2023-03-11T13:43:51.300Z,0.73
2023-03-11T13:46:38.332Z,0.60
2023-03-11T13:49:46.242Z,0.80
2023-03-11T13:52:24.467Z,0.70
2023-03-11T13:54:59.549Z,0.70
2023-03-11T13:57:36.259Z,0.80
2023-03-11T14:00:19.207Z,0.70
2023-03-11T14:02:55.051Z,0.88
2023-03-11T14:05:30.555Z,0.73
2023-03-11T14:08:32.489Z,0.68
2023-03-11T14:11:02.745Z,0.60
2023-03-11T14:13:32.989Z,0.70
2023-03-11T14:16:33.336Z,0.60
2023-03-11T14:19:15.889Z,0.90
2023-03-11T14:21:49.916Z,0.57
2023-03-11T14:24:28.249Z,0.73
2023-03-11T14:26:59.096Z,0.68
2023-03-11T14:29:43.653Z,0.90
2023-03-11T14:32:31.450Z,0.68
2023-03-11T14:34:59.073Z,0.75
2023-03-11T14:37:34.514Z,0.80
2023-03-11T14:40:01.709Z,0.70
2023-03-11T14:42:36.607Z,0.90
2023-03-11T14:45:13.921Z,1.17
2023-03-11T14:48:03.790Z,0.95
2023-03-11T14:50:35.106Z,1.05
2023-03-11T14:53:32.842Z,0.90
2023-03-11T14:56:05.840Z,0.85
2023-03-11T14:58:51.056Z,0.77
2023-03-11T15:01:27.457Z,0.80
2023-03-11T15:04:13.198Z,0.80
2023-03-11T15:06:43.948Z,0.70
2023-03-11T15:09:21.188Z,0.60
2023-03-11T15:12:00.735Z,0.85
2023-03-11T15:14:33.091Z,0.55
2023-03-11T15:17:36.209Z,0.80
2023-03-11T15:20:27.350Z,0.90
2023-03-11T15:23:00.469Z,0.90
2023-03-11T15:25:31.773Z,0.73
2023-03-11T15:27:59.087Z,0.60
2023-03-11T15:30:31.408Z,0.88
2023-03-11T15:32:58.909Z,0.93
2023-03-11T15:35:30.811Z,0.80
2023-03-11T15:38:25.449Z,1.02
2023-03-11T15:41:01.549Z,0.80
2023-03-11T15:43:32.634Z,0.90
2023-03-11T15:48:31.125Z,0.88
2023-03-11T15:51:00.011Z,0.88
2023-03-11T15:53:28.978Z,0.93
2023-03-11T15:56:07.401Z,1.13
2023-03-11T15:58:38.052Z,1.10
2023-03-11T16:01:05.256Z,0.90
2023-03-11T16:03:32.301Z,0.95
2023-03-11T16:05:59.263Z,0.80
2023-03-11T16:08:26.297Z,1.00
2023-03-11T16:10:53.446Z,0.95
2023-03-11T16:13:20.449Z,0.82
2023-03-11T16:15:48.096Z,1.10
2023-03-11T16:18:15.761Z,0.93
2023-03-11T16:20:51.696Z,0.82
2023-03-11T16:23:30.721Z,1.15
2023-03-11T16:26:03.011Z,1.00
2023-03-11T16:28:30.021Z,0.80
2023-03-11T16:30:57.298Z,0.88
2023-03-11T16:33:24.250Z,0.82
2023-03-11T16:35:51.266Z,1.17
2023-03-11T16:38:19.462Z,1.33
2023-03-11T16:41:02.507Z,1.23
2023-03-11T16:43:31.561Z,1.30
2023-03-11T16:45:58.539Z,1.10
2023-03-11T16:48:25.806Z,0.95
2023-03-11T16:50:52.734Z,0.90
2023-03-11T16:53:19.728Z,0.85
2023-03-11T16:55:47.460Z,0.60
2023-03-11T16:58:15.402Z,1.02
2023-03-11T17:00:43.322Z,0.65
2023-03-11T17:03:15.942Z,1.13
2023-03-11T17:05:43.722Z,0.80
2023-03-11T17:08:11.357Z,1.05
2023-03-11T17:10:43.380Z,1.30
2023-03-11T17:13:13.870Z,1.42
2023-03-11T17:15:44.323Z,1.35
2023-03-11T17:18:12.340Z,1.33
2023-03-11T17:20:40.908Z,2.30
2023-03-11T17:23:07.863Z,1.88
2023-03-11T17:25:34.806Z,1.75
2023-03-11T17:28:01.775Z,1.67
2023-03-11T17:30:38.832Z,1.40
2023-03-11T17:33:05.908Z,1.85
2023-03-11T17:35:32.964Z,2.58
2023-03-11T17:38:00.023Z,1.85
2023-03-11T17:40:29.136Z,2.03
2023-03-11T17:42:56.481Z,1.30
2023-03-11T17:45:23.390Z,1.48
2023-03-11T17:47:50.489Z,1.13
2023-03-11T17:50:17.931Z,1.00
2023-03-11T17:52:47.206Z,1.02
2023-03-11T17:55:14.167Z,0.93
2023-03-11T17:57:45.491Z,1.00
2023-03-11T18:00:14.692Z,0.85
2023-03-11T18:02:42.122Z,1.17
2023-03-11T18:05:09.354Z,0.88
2023-03-11T18:07:40.985Z,0.95
2023-03-11T18:10:09.712Z,1.05
2023-03-11T18:12:37.568Z,0.90
2023-03-11T18:15:14.172Z,0.77
2023-03-11T18:17:41.399Z,0.70
2023-03-11T18:20:09.218Z,0.80
2023-03-11T18:22:37.253Z,0.70
2023-03-11T18:25:05.088Z,0.77
2023-03-11T18:27:31.997Z,0.50
2023-03-11T18:30:00.036Z,0.50
2023-03-11T18:32:27.027Z,0.60
2023-03-11T18:34:54.052Z,1.00
2023-03-11T18:37:21.007Z,0.57
2023-03-11T18:39:47.977Z,0.55
2023-03-11T18:42:15.881Z,1.10
2023-03-11T18:44:42.936Z,1.02
2023-03-11T18:47:09.936Z,0.80
2023-03-11T18:49:36.919Z,0.98
2023-03-11T18:52:04.045Z,0.75
2023-03-11T18:54:31.497Z,0.80
2023-03-11T18:56:58.403Z,0.80
2023-03-11T18:59:27.422Z,1.10
2023-03-11T19:01:54.657Z,0.40
2023-03-11T19:04:21.835Z,0.55
2023-03-11T19:06:50.099Z,0.68
2023-03-11T19:09:18.398Z,1.05
2023-03-11T19:11:46.062Z,0.50
2023-03-11T19:14:13.462Z,0.40
2023-03-11T19:16:40.484Z,1.00
2023-03-11T19:19:07.413Z,1.05
2023-03-11T19:21:34.434Z,0.82
2023-03-11T19:24:01.400Z,0.93
2023-03-11T19:26:43.830Z,0.70
2023-03-11T19:29:12.526Z,0.85
2023-03-11T19:31:39.571Z,0.60
2023-03-11T19:34:06.586Z,0.70
2023-03-11T19:36:33.542Z,0.73
2023-03-11T19:39:00.497Z,0.57
2023-03-11T19:41:27.488Z,0.55
2023-03-11T19:43:54.460Z,0.80
2023-03-11T19:46:22.491Z,0.85
2023-03-11T19:48:49.602Z,0.70
2023-03-11T19:51:17.501Z,0.60
2023-03-11T19:53:44.567Z,0.65
2023-03-11T19:56:11.549Z,0.80
2023-03-11T19:58:40.337Z,0.82
2023-03-11T20:01:07.314Z,0.55
2023-03-11T20:03:34.341Z,0.40
2023-03-11T20:06:06.134Z,0.60
2023-03-11T20:08:36.649Z,0.70
2023-03-11T20:11:05.612Z,0.40
2023-03-11T20:13:35.394Z,0.30
2023-03-11T20:16:10.274Z,0.60
2023-03-11T20:18:37.641Z,0.60
2023-03-11T20:21:10.850Z,0.60
2023-03-11T20:23:39.353Z,0.50
2023-03-11T20:26:09.812Z,0.40
2023-03-11T20:28:37.166Z,0.55
2023-03-11T20:31:09.544Z,0.50
2023-03-11T20:33:38.421Z,0.77
2023-03-11T20:36:08.880Z,0.77
2023-03-11T20:38:36.310Z,0.57
2023-03-11T20:41:08.257Z,0.70
2023-03-11T20:43:37.200Z,0.80
2023-03-11T20:46:05.922Z,1.10
2023-03-11T20:48:34.090Z,1.00
2023-03-11T20:51:02.820Z,0.80
2023-03-11T20:53:31.408Z,0.80
2023-03-11T20:56:14.579Z,0.68
2023-03-11T20:58:43.233Z,0.70
2023-03-11T21:01:26.081Z,0.90
2023-03-11T21:03:58.984Z,0.63
2023-03-11T21:06:33.000Z,0.68
2023-03-11T21:09:04.645Z,0.63
2023-03-11T21:11:31.875Z,0.80
2023-03-11T21:13:59.369Z,0.82
2023-03-11T21:16:27.010Z,0.57
2023-03-11T21:18:54.260Z,0.70
2023-03-11T21:21:21.820Z,0.70
2023-03-11T21:23:49.699Z,0.88
2023-03-11T21:26:17.589Z,0.73
2023-03-11T21:28:46.406Z,0.80
2023-03-11T21:31:20.127Z,0.73
2023-03-11T21:33:48.035Z,0.80
2023-03-11T21:36:16.340Z,1.13
2023-03-11T21:38:43.753Z,1.40
2023-03-11T21:41:17.906Z,1.17
2023-03-11T21:43:45.780Z,1.33
2023-03-11T21:46:16.990Z,1.35
2023-03-11T21:48:45.148Z,1.35
2023-03-11T21:51:12.708Z,1.17
2023-03-11T21:53:39.796Z,1.10
2023-03-11T21:56:07.566Z,0.80
2023-03-11T21:58:34.717Z,1.20
2023-03-11T22:01:02.569Z,1.50
2023-03-11T22:03:30.664Z,1.48
2023-03-11T22:06:03.990Z,1.10
2023-03-11T22:08:31.420Z,1.55
2023-03-11T22:10:58.588Z,1.30
2023-03-11T22:13:25.827Z,2.80
2023-03-11T22:15:52.969Z,2.53
2023-03-11T22:18:21.633Z,3.08
2023-03-11T22:20:50.240Z,3.17
2023-03-11T22:23:20.325Z,3.55
2023-03-11T22:25:47.416Z,3.20
2023-03-11T22:28:14.747Z,2.67
2023-03-11T22:30:41.777Z,1.83
2023-03-11T22:33:08.697Z,1.27
2023-03-11T22:35:35.720Z,1.20
2023-03-11T22:38:03.417Z,1.30
2023-03-11T22:40:30.399Z,1.38
2023-03-11T22:42:57.448Z,1.33
2023-03-11T22:45:24.453Z,1.40
2023-03-11T22:47:53.041Z,1.55
2023-03-11T22:50:20.136Z,1.25
2023-03-11T22:52:50.183Z,1.00
2023-03-11T22:55:17.238Z,1.00
2023-03-11T22:57:44.280Z,1.70
2023-03-11T23:00:20.694Z,1.40
2023-03-11T23:02:52.818Z,1.42
2023-03-11T23:05:20.409Z,1.30
2023-03-11T23:07:47.751Z,1.30
2023-03-11T23:10:20.794Z,1.20
2023-03-11T23:12:48.796Z,1.30
2023-03-11T23:15:18.807Z,1.15
2023-03-11T23:17:46.000Z,1.15
2023-03-11T23:20:16.394Z,0.98
2023-03-11T23:22:44.124Z,0.98
2023-03-11T23:25:15.916Z,0.73
2023-03-11T23:27:45.644Z,0.90
2023-03-11T23:30:16.590Z,1.33
2023-03-11T23:32:45.167Z,1.77
2023-03-11T23:35:13.063Z,1.30
2023-03-11T23:37:40.500Z,1.60
2023-03-11T23:40:09.563Z,1.38
2023-03-11T23:42:36.516Z,1.30
2023-03-11T23:45:03.662Z,1.23
2023-03-11T23:47:30.817Z,1.95
2023-03-11T23:49:57.894Z,2.15
2023-03-11T23:52:25.010Z,2.45
2023-03-11T23:54:52.044Z,1.58
2023-03-11T23:57:19.364Z,1.77
2023-03-11T23:59:46.290Z,2.80
